Time;durP1;ratioP1;P1;durP2;ratioP2;P2;SDS_P1;SDS_P2;PMS_P1;PMS_P2;Temp;Humidity;BMP_temperature;BMP_pressure;BME280_temperature;BME280_humidity;BME280_pressure;Samples;Min_cycle;Max_cycle;Signal;HPM_P1;HPM_P2
2022/01/10 00:00:03;;;;;;;;;;;;;;;;;;5020512;28;19992;-76
2022/01/10 00:02:28;;;;;;;;;;;;;;;;;;5027025;28;19928;-75
2022/01/10 00:04:55;;;;;;;;;;;;;;;;;;5020260;28;20011;-76
2022/01/10 00:07:21;;;;;;;;;;;;;;;;;;5019307;28;19957;-76
2022/01/10 00:09:46;;;;;;;;;;;;;;;;;;5023569;28;20342;-76
2022/01/10 00:12:14;;;;;;;;;;;;;;;;;;5023525;28;20358;-77
2022/01/10 00:14:39;;;;;;;;;;;;;;;;;;5024031;28;19920;-77
2022/01/10 00:17:07;;;;;;;;;;;;;;;;;;5009840;28;20407;-79
2022/01/10 00:19:35;;;;;;;;;;;;;;;;;;5021780;28;19921;-76
2022/01/10 00:22:02;;;;;;;;;;;;;;;;;;5022229;28;19940;-75
2022/01/10 00:24:27;;;;;;;;;;;;;;;;;;5006127;28;19968;-76
2022/01/10 00:26:53;;;;;;;;;;;;;;;;;;5011802;28;20299;-76
2022/01/10 00:29:18;;;;;;;;;;;;;;;;;;5021987;28;19917;-77
2022/01/10 00:31:43;;;;;;;;;;;;;;;;;;5022876;28;19921;-74
2022/01/10 00:34:10;;;;;;;;;;;;;;;;;;5029727;28;19917;-77
2022/01/10 00:36:35;;;;;;;;;;;;;;;;;;5031809;28;19928;-76
2022/01/10 00:39:00;;;;;;;;;;;;;;;;;;5032762;28;20009;-76
2022/01/10 00:41:28;;;;;;;;;;;;;;;;;;5033547;28;19921;-75
2022/01/10 00:43:53;;;;;;;;;;;;;;;;;;5033727;28;20005;-77
2022/01/10 00:46:22;;;;;;;;;;;;;;;;;;5031661;28;20000;-76
2022/01/10 00:48:47;;;;;;;;;;;;;;;;;;5033658;28;19928;-76
2022/01/10 00:51:13;;;;;;;;;;;;;;;;;;5033634;28;19917;-74
2022/01/10 00:53:43;;;;;;;;;;;;;;;;;;5029902;28;19947;-77
2022/01/10 00:56:10;;;;;;;;;;;;;;;;;;5033095;28;20269;-76
2022/01/10 00:58:36;;;;;;;;;;;;;;;;;;5033295;28;20401;-77
2022/01/10 01:01:02;;;;;;;;;;;;;;;;;;5032740;28;19936;-76
2022/01/10 01:03:27;;;;;;;;;;;;;;;;;;5034231;28;19945;-75
2022/01/10 01:05:53;;;;;;;;;;;;;;;;;;5033933;28;20243;-75
2022/01/10 01:08:18;;;;;;;;;;;;;;;;;;5028792;28;20351;-74
2022/01/10 01:11:10;;;;;;;;;;;;;;;;;;5030138;28;20258;-76
2022/01/10 01:24:07;;;;;;;;;;;;;;;;;;5034146;28;19920;-76
2022/01/10 01:26:38;;;;;;;;;;;;;;;;;;5025669;28;19921;-76
2022/01/10 01:29:04;;;;;;;;;;;;;;;;;;5028948;28;19917;-76
2022/01/10 01:31:30;;;;;;;;;;;;;;;;;;5034246;28;20000;-76
2022/01/10 01:33:55;;;;;;;;;;;;;;;;;;5033366;28;20381;-76
2022/01/10 01:36:21;;;;;;;;;;;;;;;;;;5033238;28;19925;-76
2022/01/10 01:38:49;;;;;;;;;;;;;;;;;;5033985;28;20315;-77
2022/01/10 01:43:57;;;;;;;;;;;;;;;;;;5033398;28;19917;-77
2022/01/10 01:46:22;;;;;;;;;;;;;;;;;;5034156;28;19940;-77
2022/01/10 01:48:48;;;;;;;;;;;;;;;;;;5033991;28;19960;-77
2022/01/10 01:51:13;;;;;;;;;;;;;;;;;;5033943;28;19940;-77
2022/01/10 01:53:38;;;;;;;;;;;;;;;;;;5033899;28;19963;-77
2022/01/10 01:56:05;;;;;;;;;;;;;;;;;;5033951;28;19917;-76
2022/01/10 01:58:30;;;;;;;;;;;;;;;;;;5033456;28;19964;-77
2022/01/10 02:01:00;;;;;;;;;;;;;;;;;;5033113;28;19960;-75
2022/01/10 02:03:25;;;;;;;;;;;;;;;;;;5032698;28;19917;-76
2022/01/10 02:05:50;;;;;;;;;;;;;;;;;;5034008;28;20273;-77
2022/01/10 02:08:16;;;;;;;;;;;;;;;;;;5035643;28;19928;-77
2022/01/10 02:10:44;;;;;;;;;;;;;;;;;;5037714;28;19925;-76
2022/01/10 02:13:09;;;;;;;;;;;;;;;;;;5036870;28;19917;-77
2022/01/10 02:15:51;;;;;;;;;;;;;;;;;;5037312;28;19917;-77
2022/01/10 02:18:16;;;;;;;;;;;;;;;;;;5036481;28;19928;-75
2022/01/10 02:20:42;;;;;;;;;;;;;;;;;;5036563;28;19917;-76
2022/01/10 02:23:07;;;;;;;;;;;;;;;;;;5037265;28;20454;-77
2022/01/10 02:25:32;;;;;;;;;;;;;;;;;;5037141;28;20341;-77
2022/01/10 02:28:00;;;;;;;;;;;;;;;;;;5036233;28;19917;-76
2022/01/10 02:30:26;;;;;;;;;;;;;;;;;;5018653;28;19925;-76
2022/01/10 02:32:51;;;;;;;;;;;;;;;;;;5033628;28;20299;-76
2022/01/10 02:35:27;;;;;;;;;;;;;;;;;;5037314;28;19913;-76
2022/01/10 02:37:54;;;;;;;;;;;;;;;;;;5036311;28;20003;-76
2022/01/10 02:40:21;;;;;;;;;;;;;;;;;;5037225;28;20319;-76
2022/01/10 02:42:47;;;;;;;;;;;;;;;;;;5037040;28;19921;-76
2022/01/10 02:45:12;;;;;;;;;;;;;;;;;;5037021;28;20265;-77
2022/01/10 02:47:37;;;;;;;;;;;;;;;;;;5036838;28;19975;-76
2022/01/10 02:50:03;;;;;;;;;;;;;;;;;;5036904;28;19931;-76
2022/01/10 02:52:29;;;;;;;;;;;;;;;;;;5036982;28;19924;-76
2022/01/10 02:54:55;;;;;;;;;;;;;;;;;;5036874;28;20007;-76
2022/01/10 02:57:24;;;;;;;;;;;;;;;;;;5032808;28;19916;-76
2022/01/10 02:59:49;;;;;;;;;;;;;;;;;;5036565;28;19917;-76
2022/01/10 03:02:19;;;;;;;;;;;;;;;;;;5035296;28;20299;-77
2022/01/10 03:04:44;;;;;;;;;;;;;;;;;;5036186;28;19921;-76
2022/01/10 03:07:16;;;;;;;;;;;;;;;;;;5035722;28;19939;-76
2022/01/10 03:09:41;;;;;;;;;;;;;;;;;;5034774;28;19917;-77
2022/01/10 03:12:09;;;;;;;;;;;;;;;;;;5036311;28;19924;-77
2022/01/10 03:14:35;;;;;;;;;;;;;;;;;;5036531;28;19917;-76
2022/01/10 03:17:00;;;;;;;;;;;;;;;;;;5036470;28;20305;-77
2022/01/10 03:19:25;;;;;;;;;;;;;;;;;;5034467;28;20014;-77
2022/01/10 03:21:51;;;;;;;;;;;;;;;;;;5035319;28;20346;-76
2022/01/10 03:24:16;;;;;;;;;;;;;;;;;;5035937;28;20350;-76
2022/01/10 03:26:41;;;;;;;;;;;;;;;;;;5035363;28;19960;-77
2022/01/10 03:29:06;;;;;;;;;;;;;;;;;;5035136;28;19917;-76
2022/01/10 03:31:31;;;;;;;;;;;;;;;;;;5035693;28;19947;-76
2022/01/10 03:33:57;;;;;;;;;;;;;;;;;;5031487;28;19925;-76
2022/01/10 03:36:22;;;;;;;;;;;;;;;;;;5036020;28;19970;-76
2022/01/10 03:38:47;;;;;;;;;;;;;;;;;;5035829;28;19917;-76
2022/01/10 03:41:12;;;;;;;;;;;;;;;;;;5035912;28;19917;-76
2022/01/10 03:43:38;;;;;;;;;;;;;;;;;;5035648;28;19917;-76
2022/01/10 03:46:03;;;;;;;;;;;;;;;;;;5034986;28;19913;-76
2022/01/10 03:48:28;;;;;;;;;;;;;;;;;;5035768;28;19921;-76
2022/01/10 03:50:54;;;;;;;;;;;;;;;;;;5034773;28;19914;-75
2022/01/10 03:53:19;;;;;;;;;;;;;;;;;;5035947;28;19977;-76
2022/01/10 03:55:45;;;;;;;;;;;;;;;;;;5035341;28;20003;-79
2022/01/10 03:58:10;;;;;;;;;;;;;;;;;;5032528;28;20063;-78
2022/01/10 04:00:38;;;;;;;;;;;;;;;;;;5033650;28;19917;-79
2022/01/10 04:03:06;;;;;;;;;;;;;;;;;;5035534;28;19970;-79
2022/01/10 04:05:31;;;;;;;;;;;;;;;;;;5035447;28;19917;-80
2022/01/10 04:07:56;;;;;;;;;;;;;;;;;;5035483;28;20270;-78
2022/01/10 04:10:22;;;;;;;;;;;;;;;;;;5033766;28;19917;-79
2022/01/10 04:12:47;;;;;;;;;;;;;;;;;;5035174;28;20250;-78
2022/01/10 04:15:12;;;;;;;;;;;;;;;;;;5035181;28;19932;-79
2022/01/10 04:17:39;;;;;;;;;;;;;;;;;;5035293;28;19924;-78
2022/01/10 04:20:05;;;;;;;;;;;;;;;;;;5035285;28;19935;-80
2022/01/10 04:22:30;;;;;;;;;;;;;;;;;;5035016;28;20012;-80
2022/01/10 04:24:55;;;;;;;;;;;;;;;;;;5034864;28;19917;-80
2022/01/10 04:27:21;;;;;;;;;;;;;;;;;;5035077;28;19917;-78
2022/01/10 04:29:46;;;;;;;;;;;;;;;;;;5033855;28;19928;-78
2022/01/10 04:32:12;;;;;;;;;;;;;;;;;;5034428;28;19924;-77
2022/01/10 04:34:40;;;;;;;;;;;;;;;;;;5034479;28;19917;-80
2022/01/10 04:37:06;;;;;;;;;;;;;;;;;;5035045;28;19913;-78
2022/01/10 04:39:31;;;;;;;;;;;;;;;;;;5034791;28;19921;-79
2022/01/10 04:41:57;;;;;;;;;;;;;;;;;;5016909;28;19959;-80
2022/01/10 04:44:22;;;;;;;;;;;;;;;;;;5025456;28;20000;-79
2022/01/10 04:46:47;;;;;;;;;;;;;;;;;;5034273;28;20253;-80
2022/01/10 04:49:24;;;;;;;;;;;;;;;;;;5017546;28;20309;-78
2022/01/10 04:51:49;;;;;;;;;;;;;;;;;;5034670;28;19949;-79
2022/01/10 04:54:15;;;;;;;;;;;;;;;;;;5034472;28;20007;-78
2022/01/10 04:56:40;;;;;;;;;;;;;;;;;;5034443;28;20458;-79
2022/01/10 04:59:06;;;;;;;;;;;;;;;;;;5034410;28;19928;-79
2022/01/10 05:01:31;;;;;;;;;;;;;;;;;;5033187;28;19921;-78
2022/01/10 05:03:56;;;;;;;;;;;;;;;;;;5033642;28;19920;-79
2022/01/10 05:06:24;;;;;;;;;;;;;;;;;;5033709;28;19920;-79
2022/01/10 05:08:49;;;;;;;;;;;;;;;;;;5016416;28;19912;-79
2022/01/10 05:11:16;;;;;;;;;;;;;;;;;;5033676;28;19917;-78
2022/01/10 05:13:41;;;;;;;;;;;;;;;;;;5034646;28;19913;-79
2022/01/10 05:16:06;;;;;;;;;;;;;;;;;;5034183;28;20034;-78
2022/01/10 05:18:36;;;;;;;;;;;;;;;;;;5034357;28;19928;-80
2022/01/10 05:21:01;;;;;;;;;;;;;;;;;;5033872;28;19921;-79
2022/01/10 05:23:26;;;;;;;;;;;;;;;;;;5016564;28;19924;-79
2022/01/10 05:25:54;;;;;;;;;;;;;;;;;;5034266;28;19933;-79
2022/01/10 05:28:21;;;;;;;;;;;;;;;;;;5034330;28;20004;-79
2022/01/10 05:30:47;;;;;;;;;;;;;;;;;;5034170;28;19924;-80
2022/01/10 05:33:13;;;;;;;;;;;;;;;;;;5033825;28;20350;-78
2022/01/10 05:35:39;;;;;;;;;;;;;;;;;;5034126;28;20402;-80
2022/01/10 05:38:07;;;;;;;;;;;;;;;;;;5034243;28;19960;-80
2022/01/10 05:40:35;;;;;;;;;;;;;;;;;;5033976;28;19924;-80
2022/01/10 05:43:02;;;;;;;;;;;;;;;;;;5035899;28;19917;-78
2022/01/10 05:45:27;;;;;;;;;;;;;;;;;;5037837;28;20012;-80
2022/01/10 05:47:53;;;;;;;;;;;;;;;;;;5038159;28;19992;-80
2022/01/10 05:50:20;;;;;;;;;;;;;;;;;;5037863;28;19913;-80
2022/01/10 05:52:46;;;;;;;;;;;;;;;;;;5038056;28;19992;-79
2022/01/10 05:55:13;;;;;;;;;;;;;;;;;;5037083;28;20368;-79
2022/01/10 05:57:39;;;;;;;;;;;;;;;;;;5037033;28;19949;-79
2022/01/10 06:00:06;;;;;;;;;;;;;;;;;;5037597;28;19945;-80
2022/01/10 06:02:31;;;;;;;;;;;;;;;;;;5017250;28;20004;-79
2022/01/10 06:04:59;;;;;;;;;;;;;;;;;;5035894;28;20016;-79
2022/01/10 06:07:24;;;;;;;;;;;;;;;;;;5036573;28;19955;-79
2022/01/10 06:09:49;;;;;;;;;;;;;;;;;;5036393;28;20307;-80
2022/01/10 06:12:17;;;;;;;;;;;;;;;;;;5036519;28;19928;-78
2022/01/10 06:14:44;;;;;;;;;;;;;;;;;;5037420;28;19921;-79
2022/01/10 06:17:09;;;;;;;;;;;;;;;;;;5037032;28;19996;-80
2022/01/10 06:19:35;;;;;;;;;;;;;;;;;;5037434;28;20017;-80
2022/01/10 06:22:02;;;;;;;;;;;;;;;;;;5036142;28;19939;-80
2022/01/10 06:24:28;;;;;;;;;;;;;;;;;;5037238;28;20332;-80
2022/01/10 06:26:56;;;;;;;;;;;;;;;;;;5037386;28;19928;-79
2022/01/10 06:29:21;;;;;;;;;;;;;;;;;;5037296;28;19924;-78
2022/01/10 06:31:47;;;;;;;;;;;;;;;;;;5036568;28;19917;-79
2022/01/10 06:34:12;;;;;;;;;;;;;;;;;;5028517;28;19944;-79
2022/01/10 06:36:37;;;;;;;;;;;;;;;;;;5025926;28;19917;-78
2022/01/10 06:39:02;;;;;;;;;;;;;;;;;;5009890;28;20011;-79
2022/01/10 06:41:28;;;;;;;;;;;;;;;;;;5011753;28;19921;-79
2022/01/10 06:43:53;;;;;;;;;;;;;;;;;;4995744;28;20343;-80
2022/01/10 06:46:20;;;;;;;;;;;;;;;;;;5017087;28;19917;-80
2022/01/10 06:48:45;;;;;;;;;;;;;;;;;;5014031;28;19928;-80
2022/01/10 06:51:11;;;;;;;;;;;;;;;;;;5021164;28;19917;-78
2022/01/10 06:53:38;;;;;;;;;;;;;;;;;;5012260;28;19925;-80
2022/01/10 06:56:03;;;;;;;;;;;;;;;;;;5014455;28;20458;-80
2022/01/10 06:58:28;;;;;;;;;;;;;;;;;;4997793;28;19949;-79
2022/01/10 07:00:54;;;;;;;;;;;;;;;;;;5012737;28;19964;-78
2022/01/10 07:03:22;;;;;;;;;;;;;;;;;;5011761;28;19913;-82
2022/01/10 07:05:47;;;;;;;;;;;;;;;;;;4996547;28;19976;-81
2022/01/10 07:08:13;;;;;;;;;;;;;;;;;;5008767;28;19922;-79
2022/01/10 07:10:41;;;;;;;;;;;;;;;;;;5012840;28;19924;-83
2022/01/10 07:13:09;;;;;;;;;;;;;;;;;;4993186;28;20346;-81
2022/01/10 07:15:36;;;;;;;;;;;;;;;;;;4993826;28;19918;-81
2022/01/10 07:18:04;;;;;;;;;;;;;;;;;;5006423;28;20141;-80
2022/01/10 07:20:31;;;;;;;;;;;;;;;;;;4995554;28;19925;-81
2022/01/10 07:22:59;;;;;;;;;;;;;;;;;;4980728;28;20351;-81
2022/01/10 07:25:24;;;;;;;;;;;;;;;;;;5015403;28;20008;-79
2022/01/10 07:27:49;;;;;;;;;;;;;;;;;;5009305;28;20009;-80
2022/01/10 07:30:14;;;;;;;;;;;;;;;;;;4995777;28;19923;-80
2022/01/10 07:32:40;;;;;;;;;;;;;;;;;;4979107;28;20015;-80
2022/01/10 07:35:05;;;;;;;;;;;;;;;;;;5035727;28;19913;-81
2022/01/10 07:37:30;;;;;;;;;;;;;;;;;;5018053;28;19921;-81
2022/01/10 07:39:58;;;;;;;;;;;;;;;;;;5033991;28;19933;-81
2022/01/10 07:42:23;;;;;;;;;;;;;;;;;;5034619;28;19932;-81
2022/01/10 07:44:51;;;;;;;;;;;;;;;;;;5035205;28;19929;-81
2022/01/10 07:47:16;;;;;;;;;;;;;;;;;;5032412;28;19940;-81
2022/01/10 07:49:44;;;;;;;;;;;;;;;;;;5034667;28;19924;-81
2022/01/10 07:52:14;;;;;;;;;;;;;;;;;;5035011;28;20346;-81
2022/01/10 07:54:44;;;;;;;;;;;;;;;;;;5035319;28;19917;-81
2022/01/10 07:57:09;;;;;;;;;;;;;;;;;;5033434;28;19936;-79
2022/01/10 07:59:34;;;;;;;;;;;;;;;;;;5035495;28;19913;-81
2022/01/10 08:02:00;;;;;;;;;;;;;;;;;;5034685;28;19937;-80
2022/01/10 08:04:25;;;;;;;;;;;;;;;;;;5035524;28;19913;-81
2022/01/10 08:06:50;;;;;;;;;;;;;;;;;;5035458;28;19979;-79
2022/01/10 08:09:15;;;;;;;;;;;;;;;;;;5035276;28;19917;-80
2022/01/10 08:11:41;;;;;;;;;;;;;;;;;;5035343;28;19917;-80
2022/01/10 08:14:06;;;;;;;;;;;;;;;;;;5034317;28;19921;-80
2022/01/10 08:16:34;;;;;;;;;;;;;;;;;;5035052;28;19917;-82
2022/01/10 08:18:59;;;;;;;;;;;;;;;;;;5035191;28;19932;-81
2022/01/10 08:21:24;;;;;;;;;;;;;;;;;;5034860;28;19921;-80
2022/01/10 08:23:52;;;;;;;;;;;;;;;;;;5030134;28;20064;-79
2022/01/10 08:26:17;;;;;;;;;;;;;;;;;;5050029;28;20051;-82
2022/01/10 08:28:42;;;;;;;;;;;;;;;;;;5034207;28;20357;-81
2022/01/10 08:31:11;;;;;;;;;;;;;;;;;;5016919;28;20012;-82
2022/01/10 08:33:36;;;;;;;;;;;;;;;;;;5032487;28;19917;-82
2022/01/10 08:36:01;;;;;;;;;;;;;;;;;;5035146;28;19939;-80
2022/01/10 08:38:29;;;;;;;;;;;;;;;;;;5033214;28;19917;-81
2022/01/10 08:40:54;;;;;;;;;;;;;;;;;;5034354;28;20358;-79
2022/01/10 08:43:19;;;;;;;;;;;;;;;;;;5033984;28;19913;-81
2022/01/10 08:45:44;;;;;;;;;;;;;;;;;;5035071;28;19913;-82
2022/01/10 08:48:12;;;;;;;;;;;;;;;;;;5033854;28;19913;-82
2022/01/10 08:50:38;;;;;;;;;;;;;;;;;;5036256;28;19917;-81
2022/01/10 08:53:04;;;;;;;;;;;;;;;;;;5035614;28;19924;-80
2022/01/10 08:55:29;;;;;;;;;;;;;;;;;;5034808;28;19913;-81
2022/01/10 08:57:54;;;;;;;;;;;;;;;;;;5033657;28;19974;-82
2022/01/10 09:00:20;;;;;;;;;;;;;;;;;;5033185;28;19917;-81
2022/01/10 09:02:53;;;;;;;;;;;;;;;;;;5034433;28;20347;-81
2022/01/10 09:05:18;;;;;;;;;;;;;;;;;;5029612;28;19917;-81
2022/01/10 09:07:44;;;;;;;;;;;;;;;;;;5039163;28;19932;-82
2022/01/10 09:10:09;;;;;;;;;;;;;;;;;;5029077;28;19928;-80
2022/01/10 09:12:38;;;;;;;;;;;;;;;;;;5033825;28;19921;-80
2022/01/10 09:15:14;;;;;;;;;;;;;;;;;;5034557;28;20353;-81
2022/01/10 09:17:39;;;;;;;;;;;;;;;;;;5032454;28;19921;-82
2022/01/10 09:20:06;;;;;;;;;;;;;;;;;;5049878;28;20536;-81
2022/01/10 09:22:31;;;;;;;;;;;;;;;;;;5033106;28;20276;-81
2022/01/10 09:24:56;;;;;;;;;;;;;;;;;;5034388;28;20012;-80
2022/01/10 09:27:21;;;;;;;;;;;;;;;;;;5034207;28;20296;-81
2022/01/10 09:29:47;;;;;;;;;;;;;;;;;;5034074;28;19916;-82
2022/01/10 09:32:12;;;;;;;;;;;;;;;;;;5033306;28;19917;-82
2022/01/10 09:34:37;;;;;;;;;;;;;;;;;;5033911;28;19924;-80
2022/01/10 09:37:05;;;;;;;;;;;;;;;;;;5034227;28;19944;-82
2022/01/10 09:39:30;;;;;;;;;;;;;;;;;;5033881;28;19917;-79
2022/01/10 09:41:56;;;;;;;;;;;;;;;;;;5016244;28;19979;-82
2022/01/10 09:44:24;;;;;;;;;;;;;;;;;;5033286;28;19961;-80
2022/01/10 09:46:49;;;;;;;;;;;;;;;;;;5033322;28;19920;-82
2022/01/10 09:49:17;;;;;;;;;;;;;;;;;;5034180;28;19913;-80
2022/01/10 09:51:45;;;;;;;;;;;;;;;;;;5034132;28;20301;-81
2022/01/10 09:54:10;;;;;;;;;;;;;;;;;;5033008;28;20438;-81
2022/01/10 09:56:35;;;;;;;;;;;;;;;;;;5034018;28;19924;-81
2022/01/10 09:59:00;;;;;;;;;;;;;;;;;;5034031;28;20374;-82
2022/01/10 10:01:26;;;;;;;;;;;;;;;;;;5033564;28;20004;-82
2022/01/10 10:03:52;;;;;;;;;;;;;;;;;;5034048;28;19956;-82
2022/01/10 10:06:18;;;;;;;;;;;;;;;;;;5033708;28;20269;-81
2022/01/10 10:08:43;;;;;;;;;;;;;;;;;;5033976;28;20052;-82
2022/01/10 10:11:11;;;;;;;;;;;;;;;;;;5033798;28;20266;-83
2022/01/10 10:13:54;;;;;;;;;;;;;;;;;;5034253;28;19925;-81
2022/01/10 10:16:21;;;;;;;;;;;;;;;;;;5033116;28;19928;-81
2022/01/10 10:18:47;;;;;;;;;;;;;;;;;;5032983;28;19913;-81
2022/01/10 10:21:16;;;;;;;;;;;;;;;;;;5033015;28;19979;-83
2022/01/10 10:23:46;;;;;;;;;;;;;;;;;;5032974;28;20409;-82
2022/01/10 10:26:11;;;;;;;;;;;;;;;;;;5033611;28;20358;-82
2022/01/10 10:28:37;;;;;;;;;;;;;;;;;;5035599;28;19921;-83
2022/01/10 10:31:02;;;;;;;;;;;;;;;;;;5037281;28;19932;-83
2022/01/10 10:33:27;;;;;;;;;;;;;;;;;;5019418;28;19975;-82
2022/01/10 10:35:54;;;;;;;;;;;;;;;;;;5037272;28;19970;-82
2022/01/10 10:38:19;;;;;;;;;;;;;;;;;;5036026;28;19982;-81
2022/01/10 10:40:45;;;;;;;;;;;;;;;;;;5035190;28;21240;-81
2022/01/10 10:43:10;;;;;;;;;;;;;;;;;;5018380;28;20333;-81
2022/01/10 10:45:36;;;;;;;;;;;;;;;;;;5035477;28;19924;-81
2022/01/10 10:48:09;;;;;;;;;;;;;;;;;;5036597;28;19972;-81
2022/01/10 10:50:43;;;;;;;;;;;;;;;;;;5034383;28;19921;-80
2022/01/10 10:53:13;;;;;;;;;;;;;;;;;;5036184;28;20546;-80
2022/01/10 10:55:39;;;;;;;;;;;;;;;;;;5036469;28;19928;-77
2022/01/10 10:58:05;;;;;;;;;;;;;;;;;;5048628;28;19917;-83
2022/01/10 11:00:30;;;;;;;;;;;;;;;;;;5035600;28;20426;-80
2022/01/10 11:02:55;;;;;;;;;;;;;;;;;;5036448;28;20016;-80
2022/01/10 11:05:21;;;;;;;;;;;;;;;;;;5036265;28;19913;-80
2022/01/10 11:07:46;;;;;;;;;;;;;;;;;;5036613;28;20000;-81
2022/01/10 11:10:11;;;;;;;;;;;;;;;;;;5018822;28;19917;-80
2022/01/10 11:12:42;;;;;;;;;;;;;;;;;;5019171;28;19917;-79
2022/01/10 11:15:08;;;;;;;;;;;;;;;;;;5019479;28;20342;-81
2022/01/10 11:17:33;;;;;;;;;;;;;;;;;;5034947;28;19923;-80
2022/01/10 11:20:25;;;;;;;;;;;;;;;;;;5035765;28;19925;-79
2022/01/10 11:22:51;;;;;;;;;;;;;;;;;;5011886;28;19938;-80
2022/01/10 11:25:20;;;;;;;;;;;;;;;;;;5036810;28;19917;-80
2022/01/10 11:27:45;;;;;;;;;;;;;;;;;;5036412;28;19920;-80
2022/01/10 11:30:30;;;;;;;;;;;;;;;;;;5036226;28;20369;-79
2022/01/10 11:33:02;;;;;;;;;;;;;;;;;;5034979;28;20004;-80
2022/01/10 11:35:28;;;;;;;;;;;;;;;;;;5036242;28;19924;-79
2022/01/10 11:37:54;;;;;;;;;;;;;;;;;;5035423;28;19923;-79
2022/01/10 11:40:20;;;;;;;;;;;;;;;;;;5035107;28;19916;-80
2022/01/10 11:42:46;;;;;;;;;;;;;;;;;;5032051;28;19921;-79
2022/01/10 11:45:13;;;;;;;;;;;;;;;;;;5031546;28;19914;-79
2022/01/10 11:48:04;;;;;;;;;;;;;;;;;;5029109;28;20058;-80
2022/01/10 11:50:30;;;;;;;;;;;;;;;;;;5035416;28;19928;-79
2022/01/10 11:52:57;;;;;;;;;;;;;;;;;;5018030;28;20428;-80
2022/01/10 11:55:31;;;;;;;;;;;;;;;;;;5035151;28;20365;-80
2022/01/10 11:58:05;;;;;;;;;;;;;;;;;;5035628;28;20331;-80
2022/01/10 12:00:35;;;;;;;;;;;;;;;;;;5034512;28;20301;-79
2022/01/10 12:03:00;;;;;;;;;;;;;;;;;;5034584;28;20016;-78
2022/01/10 12:05:25;;;;;;;;;;;;;;;;;;5035542;28;19988;-80
2022/01/10 12:07:51;;;;;;;;;;;;;;;;;;5034661;28;20020;-80
2022/01/10 12:10:17;;;;;;;;;;;;;;;;;;5035164;28;20016;-81
2022/01/10 12:12:42;;;;;;;;;;;;;;;;;;5018177;28;19932;-81
2022/01/10 12:15:19;;;;;;;;;;;;;;;;;;5035589;28;19988;-80
2022/01/10 12:17:44;;;;;;;;;;;;;;;;;;5030948;28;19933;-78
2022/01/10 12:20:11;;;;;;;;;;;;;;;;;;5037344;28;20008;-83
2022/01/10 12:22:38;;;;;;;;;;;;;;;;;;5037956;28;20024;-85
2022/01/10 12:25:04;;;;;;;;;;;;;;;;;;5050600;28;19921;-84
2022/01/10 12:27:29;;;;;;;;;;;;;;;;;;5037911;28;19978;-81
2022/01/10 12:29:54;;;;;;;;;;;;;;;;;;5035162;28;20266;-81
2022/01/10 12:32:25;;;;;;;;;;;;;;;;;;5019861;28;19921;-82
2022/01/10 12:34:50;;;;;;;;;;;;;;;;;;5033964;28;19964;-76
2022/01/10 12:37:16;;;;;;;;;;;;;;;;;;5034115;28;19952;-76
2022/01/10 12:39:41;;;;;;;;;;;;;;;;;;5034881;28;20281;-76
2022/01/10 12:42:06;;;;;;;;;;;;;;;;;;5017536;28;19921;-81
2022/01/10 12:44:41;;;;;;;;;;;;;;;;;;5034346;28;19929;-81
2022/01/10 12:47:06;;;;;;;;;;;;;;;;;;5029854;28;19917;-83
2022/01/10 12:49:36;;;;;;;;;;;;;;;;;;5037146;28;19996;-85
2022/01/10 12:52:01;;;;;;;;;;;;;;;;;;5036736;28;19944;-83
2022/01/10 12:54:29;;;;;;;;;;;;;;;;;;5018577;28;19913;-86
2022/01/10 12:56:55;;;;;;;;;;;;;;;;;;5028509;28;19928;-85
2022/01/10 12:59:27;;;;;;;;;;;;;;;;;;5039069;28;19917;-86
2022/01/10 13:02:01;;;;;;;;;;;;;;;;;;5034982;28;20290;-86
2022/01/10 13:04:30;;;;;;;;;;;;;;;;;;5021069;28;19945;-86
2022/01/10 13:06:55;;;;;;;;;;;;;;;;;;5038911;28;19924;-86
2022/01/10 13:09:21;;;;;;;;;;;;;;;;;;5037965;28;19913;-86
2022/01/10 13:11:49;;;;;;;;;;;;;;;;;;5038993;28;19932;-84
2022/01/10 13:14:15;;;;;;;;;;;;;;;;;;5038526;28;19913;-87
2022/01/10 13:16:41;;;;;;;;;;;;;;;;;;5037898;28;19917;-85
2022/01/10 13:19:10;;;;;;;;;;;;;;;;;;5037725;28;19940;-84
2022/01/10 13:21:50;;;;;;;;;;;;;;;;;;5038832;28;19917;-85
2022/01/10 13:24:19;;;;;;;;;;;;;;;;;;5039260;28;19913;-86
2022/01/10 13:26:57;;;;;;;;;;;;;;;;;;5035185;28;19995;-86
2022/01/10 13:29:34;;;;;;;;;;;;;;;;;;5020288;28;19917;-82
2022/01/10 13:32:11;;;;;;;;;;;;;;;;;;5026126;28;19939;-82
2022/01/10 13:34:36;;;;;;;;;;;;;;;;;;5039713;28;19936;-85
2022/01/10 13:37:02;;;;;;;;;;;;;;;;;;5037109;28;19921;-87
2022/01/10 13:39:28;;;;;;;;;;;;;;;;;;5030573;28;19913;-80
2022/01/10 13:42:03;;;;;;;;;;;;;;;;;;5061653;28;19929;-82
2022/01/10 13:44:28;;;;;;;;;;;;;;;;;;5049208;28;19928;-84
2022/01/10 13:47:05;;;;;;;;;;;;;;;;;;5049356;28;19917;-83
2022/01/10 13:49:30;;;;;;;;;;;;;;;;;;5032774;28;19927;-82
2022/01/10 13:52:09;;;;;;;;;;;;;;;;;;5053692;28;19929;-79
2022/01/10 13:54:37;;;;;;;;;;;;;;;;;;5055959;28;19936;-82
2022/01/10 14:00:15;;;;;;;;;;;;;;;;;;5159008;22;19925;-82
2022/01/10 14:02:46;;;;;;;;;;;;;;;;;;5052758;28;19936;-81
2022/01/10 14:05:39;;;;;;;;;;;;;;;;;;5070871;28;19913;-84
2022/01/10 14:11:07;;;;;;;;;;;;;;;;;;5048731;28;19944;-83
2022/01/10 14:13:38;;;;;;;;;;;;;;;;;;5045609;28;19913;-82
2022/01/10 14:16:03;;;;;;;;;;;;;;;;;;5050344;28;19975;-84
2022/01/10 14:18:31;;;;;;;;;;;;;;;;;;5062831;28;19959;-85
2022/01/10 14:21:05;;;;;;;;;;;;;;;;;;5050847;28;19955;-83
2022/01/10 14:23:31;;;;;;;;;;;;;;;;;;5044865;28;19936;-83
2022/01/10 14:25:58;;;;;;;;;;;;;;;;;;5057325;28;19913;-82
2022/01/10 14:28:24;;;;;;;;;;;;;;;;;;5057175;28;19943;-80
2022/01/10 14:30:51;;;;;;;;;;;;;;;;;;5057037;28;19917;-80
2022/01/10 14:33:23;;;;;;;;;;;;;;;;;;5064840;28;19932;-80
2022/01/10 14:35:50;;;;;;;;;;;;;;;;;;5050930;28;19992;-81
2022/01/10 14:38:16;;;;;;;;;;;;;;;;;;5060270;28;19931;-80
2022/01/10 14:41:06;;;;;;;;;;;;;;;;;;5075909;28;19913;-80
2022/01/10 14:43:34;;;;;;;;;;;;;;;;;;5042193;28;19939;-81
2022/01/10 14:46:11;;;;;;;;;;;;;;;;;;5063467;28;19921;-82
2022/01/10 14:48:39;;;;;;;;;;;;;;;;;;5063616;28;19917;-80
2022/01/10 14:51:07;;;;;;;;;;;;;;;;;;5067218;28;19967;-84
2022/01/10 14:53:44;;;;;;;;;;;;;;;;;;5072490;28;19916;-80
2022/01/10 14:56:10;;;;;;;;;;;;;;;;;;5055588;28;19913;-81
2022/01/10 14:58:41;;;;;;;;;;;;;;;;;;5053630;28;20001;-80
2022/01/10 15:01:08;;;;;;;;;;;;;;;;;;5051362;28;19917;-81
2022/01/10 15:03:34;;;;;;;;;;;;;;;;;;5055304;28;19917;-79
2022/01/10 15:05:59;;;;;;;;;;;;;;;;;;5074520;28;19913;-82
2022/01/10 15:08:25;;;;;;;;;;;;;;;;;;5042370;28;19921;-80
2022/01/10 15:10:50;;;;;;;;;;;;;;;;;;5072600;28;19920;-81
2022/01/10 15:13:16;;;;;;;;;;;;;;;;;;5062462;28;19912;-80
2022/01/10 15:15:41;;;;;;;;;;;;;;;;;;5055226;28;19917;-81
2022/01/10 15:18:07;;;;;;;;;;;;;;;;;;5055074;28;19917;-79
2022/01/10 15:20:32;;;;;;;;;;;;;;;;;;5056286;28;20074;-79
2022/01/10 15:22:58;;;;;;;;;;;;;;;;;;5055951;28;19917;-80
2022/01/10 15:25:23;;;;;;;;;;;;;;;;;;5037849;28;20329;-80
2022/01/10 15:27:50;;;;;;;;;;;;;;;;;;5055342;28;19916;-80
2022/01/10 15:30:15;;;;;;;;;;;;;;;;;;5055559;28;20274;-79
2022/01/10 15:32:41;;;;;;;;;;;;;;;;;;5055884;28;19919;-78
2022/01/10 15:35:07;;;;;;;;;;;;;;;;;;5055283;28;20274;-80
2022/01/10 15:37:33;;;;;;;;;;;;;;;;;;5054041;28;20008;-80
2022/01/10 15:39:58;;;;;;;;;;;;;;;;;;5054423;28;19924;-80
2022/01/10 15:42:23;;;;;;;;;;;;;;;;;;5072282;28;19916;-81
2022/01/10 15:44:52;;;;;;;;;;;;;;;;;;5051150;28;19916;-78
2022/01/10 15:47:17;;;;;;;;;;;;;;;;;;5047356;28;19916;-80
2022/01/10 15:49:45;;;;;;;;;;;;;;;;;;5054926;28;19919;-78
2022/01/10 15:52:10;;;;;;;;;;;;;;;;;;5054115;28;19923;-79
2022/01/10 15:54:35;;;;;;;;;;;;;;;;;;5054217;28;19917;-77
2022/01/10 15:57:00;;;;;;;;;;;;;;;;;;5054045;28;19917;-83
2022/01/10 15:59:26;;;;;;;;;;;;;;;;;;5054894;28;19927;-80
2022/01/10 16:01:52;;;;;;;;;;;;;;;;;;5054667;28;19931;-84
2022/01/10 16:04:17;;;;;;;;;;;;;;;;;;5054037;28;20246;-80
2022/01/10 16:06:42;;;;;;;;;;;;;;;;;;5054830;28;20358;-83
2022/01/10 16:09:07;;;;;;;;;;;;;;;;;;5053988;28;20251;-86
2022/01/10 16:11:33;;;;;;;;;;;;;;;;;;5054869;28;19913;-82
2022/01/10 16:13:58;;;;;;;;;;;;;;;;;;5054831;28;19948;-86
2022/01/10 16:16:24;;;;;;;;;;;;;;;;;;5043214;28;19928;-86
2022/01/10 16:18:49;;;;;;;;;;;;;;;;;;5049764;28;19916;-83
2022/01/10 16:21:15;;;;;;;;;;;;;;;;;;5046957;28;20378;-86
2022/01/10 16:23:41;;;;;;;;;;;;;;;;;;5050183;28;20010;-87
2022/01/10 16:26:06;;;;;;;;;;;;;;;;;;5049696;28;20251;-85
2022/01/10 16:28:32;;;;;;;;;;;;;;;;;;5046060;28;19917;-83
2022/01/10 16:30:57;;;;;;;;;;;;;;;;;;5032634;28;19917;-81
2022/01/10 16:33:22;;;;;;;;;;;;;;;;;;5046861;28;19928;-84
2022/01/10 16:35:49;;;;;;;;;;;;;;;;;;5043536;28;19912;-84
2022/01/10 16:38:16;;;;;;;;;;;;;;;;;;5043858;28;20063;-82
2022/01/10 16:40:41;;;;;;;;;;;;;;;;;;5030616;28;19986;-83
2022/01/10 16:43:08;;;;;;;;;;;;;;;;;;5052886;28;20374;-83
2022/01/10 16:45:34;;;;;;;;;;;;;;;;;;5053175;28;20011;-82
2022/01/10 16:48:01;;;;;;;;;;;;;;;;;;5053111;28;20410;-82
2022/01/10 16:50:28;;;;;;;;;;;;;;;;;;5049375;28;20226;-84
2022/01/10 16:52:56;;;;;;;;;;;;;;;;;;5049800;28;19935;-85
2022/01/10 16:55:21;;;;;;;;;;;;;;;;;;5055494;28;20337;-83
2022/01/10 16:57:48;;;;;;;;;;;;;;;;;;5054835;28;19962;-82
2022/01/10 17:00:14;;;;;;;;;;;;;;;;;;5054381;28;19909;-85
2022/01/10 17:02:39;;;;;;;;;;;;;;;;;;5053452;28;19929;-82